createdAt,value
2023-02-27T00:03:16.501Z,61544
2023-02-27T00:08:18.099Z,61544
2023-02-27T00:13:19.686Z,61544
2023-02-27T00:18:21.371Z,61544
2023-02-27T00:23:23.144Z,61544
2023-02-27T00:28:24.784Z,61544
2023-02-27T00:33:26.496Z,61544
2023-02-27T00:38:28.315Z,30744
2023-02-27T00:43:29.941Z,61544
2023-02-27T00:48:31.753Z,61544
2023-02-27T00:53:33.389Z,30744
2023-02-27T00:58:34.968Z,30744
2023-02-27T01:03:36.891Z,30744
2023-02-27T01:08:38.538Z,30744
2023-02-27T01:13:40.109Z,30744
2023-02-27T01:18:41.742Z,30744
2023-02-27T01:23:43.434Z,30744
2023-02-27T01:28:45.225Z,30744
2023-02-27T01:33:46.853Z,30744
2023-02-27T01:38:48.511Z,30744
2023-02-27T01:43:50.132Z,30744
2023-02-27T01:48:51.825Z,30744
2023-02-27T01:53:53.468Z,30744
2023-02-27T01:58:55.251Z,30744
2023-02-27T02:03:56.895Z,30744
2023-02-27T02:08:58.490Z,30744
2023-02-27T02:14:00.121Z,30744
2023-02-27T02:19:01.850Z,8744
2023-02-27T02:24:03.535Z,30744
2023-02-27T02:29:05.110Z,20477.33333
2023-02-27T02:34:06.705Z,15344
2023-02-27T02:39:08.426Z,10210.66667
2023-02-27T02:44:10.152Z,4682.46154
2023-02-27T02:49:11.787Z,20477.33333
2023-02-27T02:54:13.479Z,30744
2023-02-27T02:59:15.093Z,30744
2023-02-27T03:04:16.794Z,30744
2023-02-27T03:09:18.451Z,30744
2023-02-27T03:14:20.049Z,12264
2023-02-27T03:19:21.667Z,3186.10526
2023-02-27T03:24:23.261Z,7644
2023-02-27T03:29:24.879Z,10210.66667
2023-02-27T03:34:26.596Z,20477.33333
2023-02-27T03:39:28.299Z,10210.66667
2023-02-27T03:44:30.162Z,12264
2023-02-27T03:49:31.763Z,15344
2023-02-27T03:54:33.366Z,15344
2023-02-27T03:59:35.054Z,20477.33333
2023-02-27T04:04:36.776Z,20477.33333
2023-02-27T04:09:38.539Z,20477.33333
2023-02-27T04:14:40.173Z,20477.33333
2023-02-27T04:19:41.832Z,30744
2023-02-27T04:24:43.403Z,15344
2023-02-27T04:29:44.993Z,15344
2023-02-27T04:34:46.753Z,20477.33333
2023-02-27T04:39:48.385Z,20477.33333
2023-02-27T04:44:50.017Z,20477.33333
2023-02-27T04:49:51.720Z,20477.33333
2023-02-27T04:54:53.353Z,20477.33333
2023-02-27T04:59:55.039Z,20477.33333
2023-02-27T05:04:56.788Z,10210.66667
2023-02-27T05:09:58.435Z,10210.66667
2023-02-27T05:15:00.229Z,10210.66667
2023-02-27T05:20:01.904Z,20477.33333
2023-02-27T05:25:03.531Z,20477.33333
2023-02-27T05:30:05.162Z,20477.33333
2023-02-27T05:35:06.771Z,20477.33333
2023-02-27T05:40:08.575Z,20477.33333
2023-02-27T05:45:10.162Z,30744
2023-02-27T05:50:11.786Z,20477.33333
2023-02-27T05:55:13.425Z,20477.33333
2023-02-27T06:00:15.038Z,20477.33333
2023-02-27T06:05:16.947Z,20477.33333
2023-02-27T06:10:18.649Z,20477.33333
2023-02-27T06:15:20.440Z,20477.33333
2023-02-27T06:20:22.093Z,20477.33333
2023-02-27T06:25:23.945Z,20477.33333
2023-02-27T06:30:25.626Z,20477.33333
2023-02-27T06:35:27.305Z,20477.33333
2023-02-27T06:40:29.209Z,20477.33333
2023-02-27T06:45:30.863Z,20477.33333
2023-02-27T06:50:32.503Z,20477.33333
2023-02-27T06:55:34.176Z,20477.33333
2023-02-27T07:00:35.881Z,20477.33333
2023-02-27T07:05:37.500Z,20477.33333
2023-02-27T07:10:39.189Z,20477.33333
2023-02-27T07:15:40.841Z,20477.33333
2023-02-27T07:20:42.491Z,20477.33333
2023-02-27T07:25:44.166Z,20477.33333
2023-02-27T07:30:45.842Z,20477.33333
2023-02-27T07:35:47.452Z,20477.33333
2023-02-27T07:40:49.329Z,8744
2023-02-27T07:45:50.948Z,6104
2023-02-27T07:50:52.575Z,5077.33333
2023-02-27T07:55:54.308Z,3366.22222
2023-02-27T08:00:55.975Z,2877.33333
2023-02-27T08:05:57.652Z,3024
2023-02-27T08:10:59.312Z,4050.66667
2023-02-27T08:16:01.007Z,6104
2023-02-27T08:21:02.723Z,12264
2023-02-27T08:26:04.406Z,12264
2023-02-27T08:31:06.016Z,15344
2023-02-27T08:36:07.752Z,20477.33333
2023-02-27T08:41:09.443Z,20477.33333
2023-02-27T08:46:11.203Z,20477.33333
2023-02-27T08:51:12.886Z,20477.33333
2023-02-27T08:56:14.542Z,20477.33333
2023-02-27T09:01:16.164Z,12264
2023-02-27T09:06:17.847Z,12264
2023-02-27T09:11:19.421Z,15344
2023-02-27T09:16:21.076Z,15344
2023-02-27T09:21:22.726Z,12264
2023-02-27T09:26:39.714Z,12264
2023-02-27T09:31:44.007Z,10210.66667
2023-02-27T09:36:45.813Z,15344
2023-02-27T09:41:47.517Z,15344
2023-02-27T09:46:49.145Z,15344
2023-02-27T09:51:53.122Z,15344
2023-02-27T09:56:55.185Z,15344
2023-02-27T10:01:56.813Z,15344
2023-02-27T10:06:58.463Z,20477.33333
2023-02-27T10:12:00.126Z,20477.33333
2023-02-27T10:17:01.912Z,20477.33333
2023-02-27T10:22:03.571Z,15344
2023-02-27T10:27:05.275Z,20477.33333
2023-02-27T10:32:06.978Z,15344
2023-02-27T10:37:08.627Z,12264
2023-02-27T10:42:10.220Z,15344
2023-02-27T10:47:11.925Z,15344
2023-02-27T10:52:13.544Z,20477.33333
2023-02-27T10:57:15.170Z,15344
2023-02-27T11:02:16.770Z,15344
2023-02-27T11:07:19.803Z,15344
2023-02-27T11:12:21.443Z,20477.33333
2023-02-27T11:17:23.057Z,6788.44444
2023-02-27T11:22:24.693Z,3366.22222
2023-02-27T11:27:26.620Z,4344
2023-02-27T11:32:28.257Z,5544
2023-02-27T11:37:29.952Z,1755.76471
2023-02-27T11:42:31.583Z,1410.66667
2023-02-27T11:47:33.301Z,1201.14286
2023-02-27T11:52:35.600Z,1064
2023-02-27T11:57:37.223Z,921.77778
2023-02-27T12:02:39.434Z,863.40299
2023-02-27T12:07:41.124Z,1024.70175
2023-02-27T12:12:42.794Z,2313.23077
2023-02-27T12:17:44.441Z,4344
2023-02-27T12:22:46.147Z,4344
2023-02-27T12:27:47.785Z,2877.33333
2023-02-27T12:32:50.405Z,3567.52941
2023-02-27T12:37:52.207Z,1410.66667
2023-02-27T12:42:53.796Z,2622.26087
2023-02-27T12:47:55.574Z,8744
2023-02-27T12:52:57.448Z,12264
2023-02-27T12:57:59.030Z,6104
2023-02-27T13:03:00.812Z,3794
2023-02-27T13:08:02.502Z,4682.46154
2023-02-27T13:13:04.369Z,4344
2023-02-27T13:18:06.086Z,3366.22222
2023-02-27T13:23:07.705Z,1655.11111
2023-02-27T13:28:09.374Z,1064
2023-02-27T13:33:11.180Z,1201.14286
2023-02-27T13:38:12.945Z,1006.06897
2023-02-27T13:43:14.565Z,2225.48148
2023-02-27T13:48:16.210Z,8744
2023-02-27T13:53:17.820Z,12264
2023-02-27T13:58:19.503Z,8744
2023-02-27T14:03:21.279Z,3567.52941
2023-02-27T14:08:22.944Z,1608.86486
2023-02-27T14:13:24.558Z,849.88235
2023-02-27T14:18:34.038Z,765.33333
2023-02-27T14:23:36.206Z,1446.43902
2023-02-27T14:28:37.889Z,891.69231
2023-02-27T14:33:40.759Z,921.77778
2023-02-27T14:38:42.518Z,787.83562
2023-02-27T14:43:44.115Z,776.43243
2023-02-27T14:48:45.723Z,1283.13043
2023-02-27T14:53:47.330Z,906.5
2023-02-27T14:58:55.632Z,723.74684
2023-02-27T15:04:04.057Z,723.74684
2023-02-27T15:09:05.795Z,744
2023-02-27T15:14:07.421Z,1044
2023-02-27T15:19:09.182Z,1704
2023-02-27T15:24:10.831Z,1344
2023-02-27T15:29:12.697Z,877.33333
2023-02-27T15:34:14.311Z,677.33333
2023-02-27T15:39:15.950Z,824
2023-02-27T15:44:17.584Z,1655.11111
2023-02-27T15:49:19.379Z,1655.11111
2023-02-27T15:54:20.968Z,2877.33333
2023-02-27T15:59:22.608Z,3567.52941
2023-02-27T16:04:24.232Z,8744
2023-02-27T16:09:25.864Z,10210.66667
2023-02-27T16:14:27.509Z,7644
2023-02-27T16:19:29.097Z,8744
2023-02-27T16:24:30.928Z,12264
2023-02-27T16:29:32.729Z,8744
2023-02-27T16:34:44.713Z,12264
2023-02-27T16:39:46.694Z,10210.66667
2023-02-27T16:44:48.404Z,12264
2023-02-27T16:49:50.234Z,15344
2023-02-27T16:54:51.840Z,15344
2023-02-27T16:59:53.512Z,15344
2023-02-27T17:04:55.144Z,20477.33333
2023-02-27T17:09:56.796Z,20477.33333
2023-02-27T17:14:58.393Z,20477.33333
2023-02-27T17:20:00.104Z,20477.33333
2023-02-27T17:25:01.720Z,20477.33333
2023-02-27T17:30:03.439Z,20477.33333
2023-02-27T17:35:05.076Z,20477.33333
2023-02-27T17:40:06.761Z,15344
2023-02-27T17:45:08.365Z,20477.33333
2023-02-27T17:50:10.173Z,20477.33333
2023-02-27T17:55:11.787Z,20477.33333
2023-02-27T18:00:13.434Z,30744
2023-02-27T18:05:15.060Z,30744
2023-02-27T18:10:16.917Z,30744
2023-02-27T18:15:18.525Z,30744
2023-02-27T18:20:20.155Z,30744
2023-02-27T18:25:21.746Z,30744
2023-02-27T18:30:23.397Z,30744
2023-02-27T18:35:25.141Z,30744
2023-02-27T18:40:26.797Z,30744
2023-02-27T18:45:28.419Z,30744
2023-02-27T18:50:30.144Z,30744
2023-02-27T18:55:32.069Z,30744
2023-02-27T19:00:33.723Z,30744
2023-02-27T19:05:35.298Z,30744
2023-02-27T19:10:36.914Z,30744
2023-02-27T19:15:38.652Z,30744
2023-02-27T19:20:40.283Z,61544
2023-02-27T19:25:41.983Z,61544
2023-02-27T19:30:43.684Z,61544
2023-02-27T19:35:45.394Z,61544
2023-02-27T19:40:47.065Z,61544
2023-02-27T19:45:48.702Z,61544
2023-02-27T19:50:50.495Z,61544
2023-02-27T19:55:52.284Z,61544
2023-02-27T20:00:54.025Z,61544
2023-02-27T20:05:55.660Z,61544
2023-02-27T20:10:57.277Z,61544
2023-02-27T20:15:58.877Z,61544
2023-02-27T20:21:01.360Z,61544
2023-02-27T20:26:03.004Z,61544
2023-02-27T20:31:04.689Z,61544
2023-02-27T20:36:06.353Z,61544
2023-02-27T20:41:07.998Z,61544
2023-02-27T20:46:09.786Z,61544
2023-02-27T20:51:11.354Z,61544
2023-02-27T20:56:13.016Z,61544
2023-02-27T21:01:14.763Z,61544
2023-02-27T21:06:16.466Z,61544
2023-02-27T21:11:18.135Z,61544
2023-02-27T21:16:19.866Z,61544
2023-02-27T21:21:21.572Z,61544
2023-02-27T21:26:23.180Z,61544
2023-02-27T21:31:24.852Z,61544
2023-02-27T21:36:26.484Z,61544
2023-02-27T21:41:28.425Z,61544
2023-02-27T21:46:30.328Z,61544
2023-02-27T21:51:40.473Z,61544
2023-02-27T21:56:42.962Z,61544
2023-02-27T22:01:44.843Z,61544
2023-02-27T22:06:46.504Z,61544
2023-02-27T22:11:48.215Z,61544
2023-02-27T22:16:49.871Z,61544
2023-02-27T22:21:51.460Z,61544
2023-02-27T22:26:53.155Z,61544
2023-02-27T22:31:55.123Z,61544
2023-02-27T22:36:57.031Z,61544
2023-02-27T22:41:58.699Z,0
2023-02-27T22:47:00.312Z,61544
2023-02-27T22:52:01.950Z,61544
2023-02-27T22:57:03.645Z,61544
2023-02-27T23:02:05.302Z,61544
2023-02-27T23:07:06.927Z,61544
2023-02-27T23:12:08.649Z,61544
2023-02-27T23:17:10.293Z,61544
2023-02-27T23:22:11.889Z,61544
2023-02-27T23:27:25.360Z,61544
2023-02-27T23:32:28.334Z,61544
2023-02-27T23:37:30.050Z,61544
2023-02-27T23:42:31.804Z,61544
2023-02-27T23:47:33.449Z,61544
2023-02-27T23:52:35.136Z,61544
2023-02-27T23:57:36.732Z,61544
